createdAt,value
2018-05-03T00:01:49.820Z,13.80
2018-05-03T00:04:17.318Z,13.80
2018-05-03T00:06:45.596Z,13.80
2018-05-03T00:09:13.860Z,13.80
2018-05-03T00:11:41.373Z,13.80
2018-05-03T00:14:08.864Z,13.80
2018-05-03T00:16:37.888Z,13.80
2018-05-03T00:19:06.144Z,13.80
2018-05-03T00:21:33.677Z,13.80
2018-05-03T00:24:01.167Z,13.80
2018-05-03T00:26:29.424Z,13.70
2018-05-03T00:28:56.936Z,13.80
2018-05-03T00:31:24.428Z,13.80
2018-05-03T00:33:51.939Z,13.80
2018-05-03T00:36:19.440Z,13.70
2018-05-03T00:38:46.956Z,13.70
2018-05-03T00:41:14.451Z,13.70
2018-05-03T00:43:41.977Z,13.60
2018-05-03T00:46:09.471Z,13.60
2018-05-03T00:48:36.964Z,13.50
2018-05-03T00:51:05.246Z,13.40
2018-05-03T00:53:33.504Z,13.30
2018-05-03T00:56:01.026Z,13.30
2018-05-03T00:58:28.517Z,13.30
2018-05-03T01:00:56.545Z,13.20
2018-05-03T01:03:24.043Z,13.20
2018-05-03T01:05:52.368Z,13.20
2018-05-03T01:08:19.867Z,13.20
2018-05-03T01:10:47.380Z,13.10
2018-05-03T01:13:14.872Z,13.10
2018-05-03T01:15:42.363Z,13.10
2018-05-03T01:18:10.650Z,13.00
2018-05-03T01:20:38.912Z,13.10
2018-05-03T01:23:06.428Z,13.00
2018-05-03T01:25:33.924Z,13.00
2018-05-03T01:28:01.441Z,13.00
2018-05-03T01:30:28.939Z,13.00
2018-05-03T01:32:56.456Z,13.00
2018-05-03T01:35:35.600Z,12.90
2018-05-03T01:38:03.112Z,12.90
2018-05-03T01:40:31.368Z,12.90
2018-05-03T01:42:58.858Z,12.80
2018-05-03T01:45:27.140Z,12.90
2018-05-03T01:47:54.645Z,12.90
2018-05-03T01:50:22.164Z,12.90
2018-05-03T01:52:49.659Z,12.90
2018-05-03T01:55:17.179Z,12.90
2018-05-03T01:57:44.668Z,12.80
2018-05-03T02:00:12.193Z,12.80
2018-05-03T02:02:39.688Z,12.80
2018-05-03T02:05:07.185Z,12.80
2018-05-03T02:07:35.468Z,12.70
2018-05-03T02:10:03.724Z,12.70
2018-05-03T02:12:31.245Z,12.70
2018-05-03T02:14:58.736Z,12.60
2018-05-03T02:17:26.252Z,12.60
2018-05-03T02:19:53.744Z,12.50
2018-05-03T02:22:21.264Z,12.50
2018-05-03T02:24:48.757Z,12.50
2018-05-03T02:27:16.248Z,12.50
2018-05-03T02:29:44.527Z,12.50
2018-05-03T02:32:12.787Z,12.50
2018-05-03T02:34:40.304Z,12.50
2018-05-03T02:37:07.800Z,12.40
2018-05-03T02:39:50.105Z,12.50
2018-05-03T02:42:19.104Z,12.40
2018-05-03T02:44:47.380Z,12.40
2018-05-03T02:47:14.896Z,12.30
2018-05-03T02:49:42.388Z,12.30
2018-05-03T02:52:09.901Z,12.20
2018-05-03T02:54:37.392Z,12.20
2018-05-03T02:57:16.752Z,12.10
2018-05-03T02:59:56.045Z,12.10
2018-05-03T03:02:29.364Z,12.00
2018-05-03T03:05:15.237Z,11.90
2018-05-03T03:11:22.292Z,11.90
2018-05-03T03:14:08.236Z,11.80
2018-05-03T03:16:53.396Z,11.80
2018-05-03T03:19:32.757Z,11.80
2018-05-03T03:22:18.048Z,11.80
2018-05-03T03:28:14.517Z,11.90
2018-05-03T03:31:00.524Z,12.00
2018-05-03T03:33:40.813Z,12.00
2018-05-03T03:36:20.300Z,12.00
2018-05-03T03:38:59.579Z,12.00
2018-05-03T03:41:38.084Z,12.00
2018-05-03T03:44:17.432Z,12.00
2018-05-03T03:46:44.951Z,12.00
2018-05-03T03:49:12.445Z,12.00
2018-05-03T03:51:39.935Z,12.00
2018-05-03T03:54:07.448Z,12.00
2018-05-03T03:56:34.957Z,12.00
2018-05-03T03:59:02.475Z,12.00
2018-05-03T04:01:29.981Z,12.00
2018-05-03T04:03:59.005Z,12.00
2018-05-03T04:06:27.264Z,12.00
2018-05-03T04:08:54.780Z,12.00
2018-05-03T04:11:22.280Z,12.00
2018-05-03T04:13:49.780Z,12.00
2018-05-03T04:16:17.300Z,12.00
2018-05-03T04:18:56.784Z,12.00
2018-05-03T04:21:36.300Z,12.00
2018-05-03T04:24:16.388Z,11.90
2018-05-03T04:26:43.910Z,11.90
2018-05-03T04:29:11.412Z,11.90
2018-05-03T04:31:38.924Z,11.90
2018-05-03T04:34:07.192Z,12.00
2018-05-03T04:36:35.480Z,12.00
2018-05-03T04:39:03.752Z,12.10
2018-05-03T04:41:32.012Z,12.10
2018-05-03T04:44:00.296Z,12.20
2018-05-03T04:46:28.565Z,12.20
2018-05-03T04:48:56.076Z,12.20
2018-05-03T04:51:23.567Z,12.30
2018-05-03T04:53:51.077Z,12.30
2018-05-03T04:56:18.564Z,12.30
2018-05-03T04:58:46.077Z,12.30
2018-05-03T05:01:14.341Z,12.30
2018-05-03T05:03:42.600Z,12.30
2018-05-03T05:06:10.129Z,12.30
2018-05-03T05:08:37.628Z,12.30
2018-05-03T05:11:05.153Z,12.40
2018-05-03T05:13:32.648Z,12.40
2018-05-03T05:16:00.167Z,12.40
2018-05-03T05:18:27.664Z,12.40
2018-05-03T05:20:55.177Z,12.50
2018-05-03T05:23:22.671Z,12.50
2018-05-03T05:25:50.167Z,12.50
2018-05-03T05:28:17.676Z,12.50
2018-05-03T05:30:45.275Z,12.50
2018-05-03T05:33:12.700Z,12.50
2018-05-03T05:35:40.192Z,12.60
2018-05-03T05:38:08.468Z,12.70
2018-05-03T05:40:36.729Z,12.60
2018-05-03T05:43:05.012Z,12.70
2018-05-03T05:45:33.273Z,12.70
2018-05-03T05:48:00.776Z,12.70
2018-05-03T05:50:28.292Z,12.80
2018-05-03T05:52:56.547Z,12.90
2018-05-03T05:55:24.066Z,12.80
2018-05-03T05:57:51.567Z,12.90
2018-05-03T06:00:19.084Z,12.90
2018-05-03T06:02:46.576Z,13.00
2018-05-03T06:05:14.090Z,13.00
2018-05-03T06:07:41.593Z,13.10
2018-05-03T06:10:09.085Z,13.20
2018-05-03T06:12:37.427Z,13.30
2018-05-03T06:15:04.939Z,13.30
2018-05-03T06:17:32.423Z,13.40
2018-05-03T06:19:59.921Z,13.50
2018-05-03T06:22:28.208Z,13.70
2018-05-03T06:24:55.701Z,13.70
2018-05-03T06:27:23.212Z,13.90
2018-05-03T06:29:50.703Z,14.00
2018-05-03T06:32:18.196Z,13.90
2018-05-03T06:34:45.712Z,13.90
2018-05-03T06:37:13.969Z,13.90
2018-05-03T06:39:42.268Z,14.00
2018-05-03T06:42:10.523Z,14.10
2018-05-03T06:44:38.038Z,14.00
2018-05-03T06:47:05.527Z,14.10
2018-05-03T06:49:33.046Z,14.10
2018-05-03T06:52:00.540Z,14.10
2018-05-03T06:54:28.032Z,14.20
2018-05-03T06:56:56.315Z,14.30
2018-05-03T06:59:24.567Z,14.30
2018-05-03T07:01:52.103Z,14.30
2018-05-03T07:04:19.628Z,14.40
2018-05-03T07:06:47.132Z,14.50
2018-05-03T07:09:14.620Z,14.50
2018-05-03T07:11:42.876Z,14.70
2018-05-03T07:14:11.160Z,14.70
2018-05-03T07:16:39.440Z,14.80
2018-05-03T07:19:07.700Z,14.80
2018-05-03T07:21:35.984Z,14.80
2018-05-03T07:24:03.478Z,14.80
2018-05-03T07:26:30.972Z,14.90
2018-05-03T07:28:58.484Z,15.00
2018-05-03T07:31:26.000Z,15.10
2018-05-03T07:33:53.488Z,15.20
2018-05-03T07:36:21.744Z,15.40
2018-05-03T07:38:50.766Z,15.50
2018-05-03T07:41:18.285Z,15.50
2018-05-03T07:43:45.771Z,15.60
2018-05-03T07:46:14.032Z,15.80
2018-05-03T07:48:41.548Z,15.80
2018-05-03T07:51:09.040Z,15.80
2018-05-03T07:53:36.557Z,15.90
2018-05-03T07:56:04.056Z,16.00
2018-05-03T07:58:31.575Z,16.10
2018-05-03T08:00:59.076Z,16.20
2018-05-03T08:03:28.104Z,16.40
2018-05-03T08:05:56.366Z,16.50
2018-05-03T08:08:24.628Z,16.60
2018-05-03T08:10:52.146Z,16.60
2018-05-03T08:13:19.668Z,16.70
2018-05-03T08:15:47.932Z,16.80
2018-05-03T08:18:15.425Z,16.80
2018-05-03T08:20:42.945Z,16.90
2018-05-03T08:23:10.459Z,16.80
2018-05-03T08:25:37.945Z,16.90
2018-05-03T08:28:06.947Z,17.10
2018-05-03T08:30:34.473Z,17.20
2018-05-03T08:33:01.985Z,17.20
2018-05-03T08:35:30.244Z,17.30
2018-05-03T08:37:57.733Z,17.30
2018-05-03T08:40:28.011Z,17.30
2018-05-03T08:42:56.021Z,17.30
2018-05-03T08:45:24.300Z,17.40
2018-05-03T08:47:52.561Z,17.60
2018-05-03T08:50:20.844Z,17.70
2018-05-03T08:52:49.101Z,17.90
2018-05-03T08:55:16.597Z,17.90
2018-05-03T08:57:44.116Z,18.00
2018-05-03T09:00:11.613Z,18.20
2018-05-03T09:02:39.128Z,18.40
2018-05-03T09:05:06.621Z,18.60
2018-05-03T09:07:34.988Z,19.10
2018-05-03T09:10:02.437Z,19.00
2018-05-03T09:12:29.935Z,19.20
2018-05-03T09:14:57.448Z,19.40
2018-05-03T09:17:24.936Z,19.50
2018-05-03T09:19:53.212Z,19.80
2018-05-03T09:22:21.489Z,19.70
2018-05-03T09:24:49.004Z,19.70
2018-05-03T09:27:16.497Z,19.80
2018-05-03T09:29:44.784Z,20.00
2018-05-03T09:32:12.272Z,20.00
2018-05-03T09:34:39.765Z,20.20
2018-05-03T09:37:07.280Z,20.10
2018-05-03T09:39:34.796Z,20.10
2018-05-03T09:42:03.057Z,20.40
2018-05-03T09:44:30.563Z,20.40
2018-05-03T09:46:58.077Z,20.60
2018-05-03T09:49:25.564Z,20.80
2018-05-03T09:51:53.088Z,20.90
2018-05-03T09:54:20.584Z,21.10
2018-05-03T09:56:48.097Z,21.10
2018-05-03T09:59:15.593Z,21.20
2018-05-03T10:01:43.850Z,21.00
2018-05-03T10:04:11.364Z,21.00
2018-05-03T10:06:38.885Z,21.10
2018-05-03T10:09:07.145Z,21.10
2018-05-03T10:11:34.637Z,21.20
2018-05-03T10:14:02.153Z,21.30
2018-05-03T10:16:29.669Z,21.20
2018-05-03T10:18:57.190Z,21.20
2018-05-03T10:21:24.689Z,21.20
2018-05-03T10:23:52.199Z,21.30
2018-05-03T10:26:20.476Z,21.60
2018-05-03T10:28:48.737Z,21.90
2018-05-03T10:31:16.232Z,21.90
2018-05-03T10:33:43.744Z,22.20
2018-05-03T10:36:11.249Z,22.40
2018-05-03T10:38:38.772Z,22.60
2018-05-03T10:41:06.261Z,22.80
2018-05-03T10:43:34.536Z,23.80
2018-05-03T10:46:02.792Z,24.10
2018-05-03T10:48:30.284Z,24.10
2018-05-03T10:50:57.796Z,24.60
2018-05-03T10:53:25.288Z,25.20
2018-05-03T10:55:53.564Z,26.00
2018-05-03T10:58:21.828Z,26.30
2018-05-03T11:00:50.104Z,26.40
2018-05-03T11:03:18.356Z,26.50
2018-05-03T11:05:45.849Z,26.40
2018-05-03T11:08:14.128Z,26.60
2018-05-03T11:10:42.390Z,27.30
2018-05-03T11:13:10.676Z,27.80
2018-05-03T11:15:38.931Z,27.90
2018-05-03T11:18:06.448Z,27.90
2018-05-03T11:20:33.936Z,28.60
2018-05-03T11:23:01.432Z,29.30
2018-05-03T11:25:28.953Z,30.00
2018-05-03T11:27:56.469Z,30.50
2018-05-03T11:30:23.993Z,31.00
2018-05-03T11:32:52.252Z,32.20
2018-05-03T11:35:19.764Z,32.10
2018-05-03T11:37:47.253Z,32.40
2018-05-03T11:40:14.764Z,33.00
2018-05-03T11:42:42.320Z,34.30
2018-05-03T11:45:09.793Z,35.60
2018-05-03T11:47:37.288Z,35.50
2018-05-03T11:50:04.777Z,35.30
2018-05-03T11:52:33.080Z,35.60
2018-05-03T11:55:00.573Z,35.60
2018-05-03T11:57:28.085Z,36.80
2018-05-03T11:59:56.340Z,36.80
2018-05-03T12:02:23.889Z,36.70
2018-05-03T12:04:51.373Z,37.30
2018-05-03T12:07:19.628Z,38.40
2018-05-03T12:09:47.924Z,39.00
2018-05-03T12:12:16.185Z,38.70
2018-05-03T12:14:43.696Z,38.60
2018-05-03T12:17:11.184Z,37.70
2018-05-03T12:19:38.697Z,38.70
2018-05-03T12:22:06.196Z,38.70
2018-05-03T12:24:33.708Z,38.40
2018-05-03T12:27:01.198Z,37.70
2018-05-03T12:29:28.717Z,36.40
2018-05-03T12:31:56.977Z,35.50
2018-05-03T12:34:25.257Z,34.90
2018-05-03T12:36:53.512Z,35.50
2018-05-03T12:39:21.029Z,35.40
2018-05-03T12:41:48.532Z,35.50
2018-05-03T12:44:16.024Z,35.30
2018-05-03T12:46:43.537Z,35.50
2018-05-03T12:49:11.028Z,35.80
2018-05-03T12:51:39.311Z,35.00
2018-05-03T12:54:07.568Z,34.10
2018-05-03T12:56:35.086Z,34.10
2018-05-03T12:59:02.577Z,33.60
2018-05-03T13:01:31.580Z,33.20
2018-05-03T13:03:59.860Z,33.60
2018-05-03T13:06:28.117Z,32.90
2018-05-03T13:08:55.634Z,32.90
2018-05-03T13:11:23.133Z,32.10
2018-05-03T13:13:50.648Z,31.50
2018-05-03T13:16:18.140Z,31.10
2018-05-03T13:18:45.657Z,30.80
2018-05-03T13:21:13.148Z,30.50
2018-05-03T13:23:40.668Z,30.30
2018-05-03T13:26:08.165Z,30.30
2018-05-03T13:28:35.680Z,30.50
2018-05-03T13:31:03.936Z,30.60
2018-05-03T13:33:32.192Z,30.60
2018-05-03T13:35:59.709Z,30.60
2018-05-03T13:38:27.200Z,30.80
2018-05-03T13:40:54.715Z,30.80
2018-05-03T13:43:22.209Z,30.80
2018-05-03T13:45:49.724Z,31.10
2018-05-03T13:48:17.225Z,31.30
2018-05-03T13:50:44.746Z,31.30
2018-05-03T13:53:12.241Z,31.20
2018-05-03T13:55:39.744Z,31.20
2018-05-03T13:58:08.029Z,31.10
2018-05-03T14:00:36.289Z,31.10
2018-05-03T14:03:03.806Z,31.10
2018-05-03T14:05:31.300Z,31.60
2018-05-03T14:07:58.813Z,31.60
2018-05-03T14:10:26.312Z,31.30
2018-05-03T14:12:53.829Z,31.20
2018-05-03T14:15:21.347Z,31.10
2018-05-03T14:17:49.600Z,30.70
2018-05-03T14:20:17.112Z,30.70
2018-05-03T14:22:44.609Z,30.70
2018-05-03T14:25:12.125Z,30.60
2018-05-03T14:27:39.621Z,30.30
2018-05-03T14:30:07.108Z,29.40
2018-05-03T14:32:35.392Z,28.90
2018-05-03T14:35:03.650Z,28.70
2018-05-03T14:37:31.169Z,28.70
2018-05-03T14:39:58.665Z,28.30
2018-05-03T14:42:26.181Z,28.00
2018-05-03T14:44:53.681Z,27.70
2018-05-03T14:47:21.268Z,27.50
2018-05-03T14:49:48.717Z,27.30
2018-05-03T14:52:16.980Z,27.00
2018-05-03T14:54:44.496Z,27.00
2018-05-03T14:57:11.992Z,27.00
2018-05-03T14:59:39.504Z,27.00
2018-05-03T15:02:07.000Z,27.00
2018-05-03T15:04:34.514Z,27.10
2018-05-03T15:07:02.014Z,27.10
2018-05-03T15:09:29.505Z,27.10
2018-05-03T15:11:57.780Z,27.30
2018-05-03T15:14:26.037Z,27.20
2018-05-03T15:16:53.556Z,27.20
2018-05-03T15:19:21.049Z,27.20
2018-05-03T15:21:48.556Z,27.10
2018-05-03T15:24:16.111Z,27.00
2018-05-03T15:26:44.348Z,26.70
2018-05-03T15:29:11.864Z,26.70
2018-05-03T15:31:39.361Z,26.80
2018-05-03T15:34:06.852Z,26.80
2018-05-03T15:36:35.128Z,26.70
2018-05-03T15:39:03.388Z,26.50
2018-05-03T15:41:31.668Z,26.40
2018-05-03T15:43:59.941Z,26.50
2018-05-03T15:46:27.455Z,26.50
2018-05-03T15:48:54.944Z,26.40
2018-05-03T15:51:22.437Z,26.30
2018-05-03T15:53:49.957Z,26.30
2018-05-03T15:56:17.444Z,26.20
2018-05-03T15:58:45.720Z,26.00
2018-05-03T16:01:13.981Z,26.00
2018-05-03T16:03:41.477Z,25.90
2018-05-03T16:06:08.992Z,25.90
2018-05-03T16:08:36.485Z,25.80
2018-05-03T16:11:03.996Z,25.70
2018-05-03T16:13:31.484Z,25.70
2018-05-03T16:15:59.748Z,25.30
2018-05-03T16:18:27.260Z,25.30
2018-05-03T16:20:54.769Z,25.10
2018-05-03T16:23:22.280Z,25.00
2018-05-03T16:25:49.768Z,24.80
2018-05-03T16:28:17.307Z,24.70
2018-05-03T16:30:44.800Z,24.70
2018-05-03T16:33:12.302Z,24.60
2018-05-03T16:35:39.825Z,24.60
2018-05-03T16:38:08.080Z,24.30
2018-05-03T16:40:36.337Z,24.30
2018-05-03T16:43:03.833Z,24.20
2018-05-03T16:45:32.089Z,24.10
2018-05-03T16:47:59.601Z,24.10
2018-05-03T16:50:27.094Z,24.10
2018-05-03T16:52:54.612Z,24.10
2018-05-03T16:55:22.114Z,24.00
2018-05-03T16:57:49.634Z,24.00
2018-05-03T17:00:17.137Z,24.00
2018-05-03T17:02:44.630Z,23.90
2018-05-03T17:05:12.912Z,23.60
2018-05-03T17:07:41.163Z,23.50
2018-05-03T17:10:08.679Z,23.50
2018-05-03T17:12:36.168Z,23.40
2018-05-03T17:15:03.661Z,23.30
2018-05-03T17:17:31.940Z,23.10
2018-05-03T17:20:00.200Z,23.10
2018-05-03T17:22:28.480Z,22.90
2018-05-03T17:24:56.740Z,22.80
2018-05-03T17:27:24.228Z,22.70
2018-05-03T17:29:52.533Z,22.40
2018-05-03T17:32:20.024Z,22.30
2018-05-03T17:34:47.538Z,22.30
2018-05-03T17:37:15.032Z,22.20
2018-05-03T17:39:42.550Z,22.20
2018-05-03T17:42:10.040Z,22.00
2018-05-03T17:44:37.533Z,22.00
2018-05-03T17:47:05.049Z,21.90
2018-05-03T17:49:32.548Z,21.70
2018-05-03T17:52:00.832Z,21.50
2018-05-03T17:54:29.099Z,21.30
2018-05-03T17:56:56.681Z,21.30
2018-05-03T17:59:24.133Z,21.20
2018-05-03T18:01:52.390Z,20.80
2018-05-03T18:04:19.908Z,20.80
2018-05-03T18:06:47.400Z,20.80
2018-05-03T18:09:14.932Z,20.60
2018-05-03T18:11:42.422Z,20.50
2018-05-03T18:14:09.912Z,20.30
2018-05-03T18:16:37.425Z,20.30
2018-05-03T18:19:04.929Z,20.20
2018-05-03T18:21:32.493Z,20.10
2018-05-03T18:24:00.753Z,19.90
2018-05-03T18:26:29.015Z,19.90
2018-05-03T18:28:56.530Z,19.80
2018-05-03T18:31:24.026Z,19.80
2018-05-03T18:33:51.540Z,19.70
2018-05-03T18:36:19.028Z,19.60
2018-05-03T18:38:46.545Z,19.60
2018-05-03T18:41:14.037Z,19.40
2018-05-03T18:43:41.543Z,19.30
2018-05-03T18:46:09.828Z,19.20
2018-05-03T18:48:37.318Z,19.20
2018-05-03T18:51:04.853Z,19.20
2018-05-03T18:53:32.359Z,19.10
2018-05-03T18:55:59.853Z,19.00
2018-05-03T18:58:28.128Z,18.90
2018-05-03T19:00:56.466Z,18.90
2018-05-03T19:03:23.928Z,18.80
2018-05-03T19:05:51.420Z,18.70
2018-05-03T19:08:19.700Z,18.60
2018-05-03T19:10:47.965Z,18.40
2018-05-03T19:13:16.267Z,18.30
2018-05-03T19:15:43.753Z,18.30
2018-05-03T19:18:11.244Z,18.20
2018-05-03T19:20:38.770Z,18.20
2018-05-03T19:23:06.273Z,18.10
2018-05-03T19:25:34.529Z,18.00
2018-05-03T19:28:02.041Z,18.00
2018-05-03T19:30:29.534Z,18.00
2018-05-03T19:32:57.052Z,17.90
2018-05-03T19:35:24.602Z,17.80
2018-05-03T19:37:52.049Z,17.80
2018-05-03T19:40:20.332Z,17.70
2018-05-03T19:42:48.592Z,17.60
2018-05-03T19:45:16.872Z,17.60
2018-05-03T19:47:45.136Z,17.60
2018-05-03T19:50:13.431Z,17.60
2018-05-03T19:52:41.693Z,17.50
2018-05-03T19:55:09.208Z,17.50
2018-05-03T19:57:36.696Z,17.50
2018-05-03T20:00:04.979Z,17.40
2018-05-03T20:02:32.472Z,17.40
2018-05-03T20:04:59.968Z,17.30
2018-05-03T20:07:27.484Z,17.30
2018-05-03T20:09:55.745Z,17.20
2018-05-03T20:12:24.025Z,17.10
2018-05-03T20:14:52.280Z,17.10
2018-05-03T20:17:19.797Z,17.10
2018-05-03T20:19:47.288Z,17.10
2018-05-03T20:22:14.784Z,17.10
2018-05-03T20:24:43.091Z,17.10
2018-05-03T20:27:10.584Z,17.10
2018-05-03T20:29:38.101Z,17.10
2018-05-03T20:32:05.603Z,17.10
2018-05-03T20:34:34.620Z,16.90
2018-05-03T20:37:02.878Z,16.90
2018-05-03T20:39:30.396Z,16.90
2018-05-03T20:41:57.888Z,16.90
2018-05-03T20:44:25.421Z,16.80
2018-05-03T20:46:52.920Z,16.80
2018-05-03T20:49:20.418Z,16.70
2018-05-03T20:51:47.931Z,16.70
2018-05-03T20:54:15.424Z,16.60
2018-05-03T20:56:42.936Z,16.60
2018-05-03T20:59:10.465Z,16.50
2018-05-03T21:01:37.937Z,16.50
2018-05-03T21:04:05.448Z,16.50
2018-05-03T21:06:33.702Z,16.30
2018-05-03T21:09:01.233Z,16.30
2018-05-03T21:11:28.724Z,16.30
2018-05-03T21:13:57.013Z,16.30
2018-05-03T21:16:25.268Z,16.30
2018-05-03T21:18:52.789Z,16.20
2018-05-03T21:21:20.294Z,16.20
2018-05-03T21:23:48.570Z,16.20
2018-05-03T21:26:16.879Z,16.10
2018-05-03T21:28:44.359Z,16.10
2018-05-03T21:31:11.872Z,16.00
2018-05-03T21:33:40.128Z,15.90
2018-05-03T21:36:08.409Z,15.90
2018-05-03T21:38:35.895Z,15.80
2018-05-03T21:41:04.174Z,15.80
2018-05-03T21:43:31.672Z,15.80
2018-05-03T21:45:59.184Z,15.80
2018-05-03T21:48:27.449Z,15.70
2018-05-03T21:50:55.729Z,15.70
2018-05-03T21:53:23.990Z,15.60
2018-05-03T21:55:52.253Z,15.70
2018-05-03T21:58:19.769Z,15.60
2018-05-03T22:00:47.268Z,15.60
2018-05-03T22:03:14.792Z,15.60
2018-05-03T22:05:42.294Z,15.70
2018-05-03T22:08:09.815Z,15.60
2018-05-03T22:10:37.312Z,15.60
2018-05-03T22:13:05.600Z,15.70
2018-05-03T22:15:33.866Z,15.60
2018-05-03T22:18:01.384Z,15.60
2018-05-03T22:20:28.888Z,15.60
2018-05-03T22:22:56.383Z,15.60
2018-05-03T22:25:23.901Z,15.60
2018-05-03T22:27:52.900Z,15.50
2018-05-03T22:30:21.925Z,15.50
2018-05-03T22:32:49.419Z,15.50
2018-05-03T22:35:16.945Z,15.50
2018-05-03T22:37:44.436Z,15.60
2018-05-03T22:40:11.949Z,15.60
2018-05-03T22:42:40.209Z,15.60
2018-05-03T22:45:07.701Z,15.50
2018-05-03T22:47:35.216Z,15.60
2018-05-03T22:50:02.712Z,15.50
2018-05-03T22:52:30.228Z,15.50
2018-05-03T22:54:58.569Z,15.50
2018-05-03T22:57:26.017Z,15.50
2018-05-03T22:59:53.512Z,15.50
2018-05-03T23:02:21.029Z,15.40
2018-05-03T23:04:48.524Z,15.40
2018-05-03T23:07:16.016Z,15.40
2018-05-03T23:09:44.296Z,15.30
2018-05-03T23:12:12.548Z,15.30
2018-05-03T23:14:40.060Z,15.20
2018-05-03T23:17:07.566Z,15.30
2018-05-03T23:19:35.094Z,15.20
2018-05-03T23:22:02.592Z,15.20
2018-05-03T23:24:30.112Z,15.10
2018-05-03T23:26:57.604Z,15.10
2018-05-03T23:29:25.151Z,15.10
2018-05-03T23:31:52.627Z,15.00
2018-05-03T23:34:20.888Z,14.90
2018-05-03T23:36:48.403Z,14.90
2018-05-03T23:39:15.892Z,14.90
2018-05-03T23:41:43.409Z,14.90
2018-05-03T23:44:10.913Z,14.80
2018-05-03T23:46:38.426Z,14.90
2018-05-03T23:49:05.920Z,14.80
2018-05-03T23:51:33.409Z,14.80
2018-05-03T23:54:00.928Z,14.80
2018-05-03T23:56:28.425Z,14.90
2018-05-03T23:58:55.936Z,14.80
